sensor_id;sensor_type;location;lat;lon;timestamp;temperature;humidity
9437;DHT22;4757;59.334;18.034;2023-01-08T00:02:03;2.10;99.90
9437;DHT22;4757;59.334;18.034;2023-01-08T00:04:30;2.00;99.90
9437;DHT22;4757;59.334;18.034;2023-01-08T00:06:57;2.10;99.90
9437;DHT22;4757;59.334;18.034;2023-01-08T00:09:24;2.10;99.90
9437;DHT22;4757;59.334;18.034;2023-01-08T00:11:51;2.10;99.90
9437;DHT22;4757;59.334;18.034;2023-01-08T00:14:18;2.10;99.90
9437;DHT22;4757;59.334;18.034;2023-01-08T00:16:44;2.10;99.90
9437;DHT22;4757;59.334;18.034;2023-01-08T00:19:12;2.10;99.90
9437;DHT22;4757;59.334;18.034;2023-01-08T00:21:39;2.10;99.90
9437;DHT22;4757;59.334;18.034;2023-01-08T00:24:06;2.20;99.90
9437;DHT22;4757;59.334;18.034;2023-01-08T00:26:33;2.10;99.90
9437;DHT22;4757;59.334;18.034;2023-01-08T00:29:00;2.10;99.90
9437;DHT22;4757;59.334;18.034;2023-01-08T00:31:27;2.20;99.90
9437;DHT22;4757;59.334;18.034;2023-01-08T00:33:54;2.20;99.90
9437;DHT22;4757;59.334;18.034;2023-01-08T00:36:21;2.20;99.90
9437;DHT22;4757;59.334;18.034;2023-01-08T00:38:48;2.20;99.90
9437;DHT22;4757;59.334;18.034;2023-01-08T00:41:15;2.20;99.90
9437;DHT22;4757;59.334;18.034;2023-01-08T00:43:42;2.20;99.90
9437;DHT22;4757;59.334;18.034;2023-01-08T00:46:09;2.20;99.90
9437;DHT22;4757;59.334;18.034;2023-01-08T00:48:36;2.20;99.90
9437;DHT22;4757;59.334;18.034;2023-01-08T00:51:06;2.30;99.90
9437;DHT22;4757;59.334;18.034;2023-01-08T00:53:33;2.20;99.90
9437;DHT22;4757;59.334;18.034;2023-01-08T00:56:06;2.20;99.90
9437;DHT22;4757;59.334;18.034;2023-01-08T00:58:34;2.20;99.90
9437;DHT22;4757;59.334;18.034;2023-01-08T01:01:01;2.30;99.90
9437;DHT22;4757;59.334;18.034;2023-01-08T01:03:29;2.30;99.90
9437;DHT22;4757;59.334;18.034;2023-01-08T01:06:03;2.30;99.90
9437;DHT22;4757;59.334;18.034;2023-01-08T01:08:30;2.30;99.90
9437;DHT22;4757;59.334;18.034;2023-01-08T01:10:57;2.30;99.90
9437;DHT22;4757;59.334;18.034;2023-01-08T01:13:24;2.30;99.90
9437;DHT22;4757;59.334;18.034;2023-01-08T01:15:58;2.30;99.90
9437;DHT22;4757;59.334;18.034;2023-01-08T01:18:26;2.30;99.90
9437;DHT22;4757;59.334;18.034;2023-01-08T01:20:53;2.30;99.90
9437;DHT22;4757;59.334;18.034;2023-01-08T01:23:20;2.20;99.90
9437;DHT22;4757;59.334;18.034;2023-01-08T01:25:47;2.30;99.90
9437;DHT22;4757;59.334;18.034;2023-01-08T01:28:14;2.20;99.90
9437;DHT22;4757;59.334;18.034;2023-01-08T01:30:41;2.30;99.90
9437;DHT22;4757;59.334;18.034;2023-01-08T01:33:09;2.30;99.90
9437;DHT22;4757;59.334;18.034;2023-01-08T01:35:35;2.20;99.90
9437;DHT22;4757;59.334;18.034;2023-01-08T01:38:02;2.30;99.90
9437;DHT22;4757;59.334;18.034;2023-01-08T01:40:30;2.30;99.90
9437;DHT22;4757;59.334;18.034;2023-01-08T01:42:57;2.30;99.90
9437;DHT22;4757;59.334;18.034;2023-01-08T01:45:25;2.30;99.90
9437;DHT22;4757;59.334;18.034;2023-01-08T01:48:00;2.30;99.90
9437;DHT22;4757;59.334;18.034;2023-01-08T01:50:41;2.30;99.90
9437;DHT22;4757;59.334;18.034;2023-01-08T01:53:18;2.30;99.90
9437;DHT22;4757;59.334;18.034;2023-01-08T01:55:48;2.30;99.90
9437;DHT22;4757;59.334;18.034;2023-01-08T02:00:49;2.40;99.90
9437;DHT22;4757;59.334;18.034;2023-01-08T02:03:21;2.30;99.90
9437;DHT22;4757;59.334;18.034;2023-01-08T02:06:27;2.30;99.90
9437;DHT22;4757;59.334;18.034;2023-01-08T02:09:13;2.40;99.90
9437;DHT22;4757;59.334;18.034;2023-01-08T02:11:59;2.40;99.90
9437;DHT22;4757;59.334;18.034;2023-01-08T02:20:30;2.40;99.90
9437;DHT22;4757;59.334;18.034;2023-01-08T02:26:14;2.50;99.90
9437;DHT22;4757;59.334;18.034;2023-01-08T02:28:58;2.50;99.90
9437;DHT22;4757;59.334;18.034;2023-01-08T02:31:28;2.50;99.90
9437;DHT22;4757;59.334;18.034;2023-01-08T02:33:56;2.50;99.90
9437;DHT22;4757;59.334;18.034;2023-01-08T02:39:24;2.50;99.90
9437;DHT22;4757;59.334;18.034;2023-01-08T02:44:39;2.60;99.90
9437;DHT22;4757;59.334;18.034;2023-01-08T02:47:11;2.60;99.90
9437;DHT22;4757;59.334;18.034;2023-01-08T02:49:40;2.60;99.90
9437;DHT22;4757;59.334;18.034;2023-01-08T02:52:11;2.60;99.90
9437;DHT22;4757;59.334;18.034;2023-01-08T02:54:39;2.60;99.90
9437;DHT22;4757;59.334;18.034;2023-01-08T02:57:11;2.50;99.90
9437;DHT22;4757;59.334;18.034;2023-01-08T02:59:40;2.60;99.90
9437;DHT22;4757;59.334;18.034;2023-01-08T03:02:09;2.50;99.90
9437;DHT22;4757;59.334;18.034;2023-01-08T03:04:48;2.50;99.90
9437;DHT22;4757;59.334;18.034;2023-01-08T03:07:17;2.60;99.90
9437;DHT22;4757;59.334;18.034;2023-01-08T03:09:44;2.60;99.90
9437;DHT22;4757;59.334;18.034;2023-01-08T03:12:23;2.60;99.90
9437;DHT22;4757;59.334;18.034;2023-01-08T03:15:03;2.60;99.90
9437;DHT22;4757;59.334;18.034;2023-01-08T03:17:46;2.60;99.90
9437;DHT22;4757;59.334;18.034;2023-01-08T03:20:17;2.60;99.90
9437;DHT22;4757;59.334;18.034;2023-01-08T03:22:48;2.60;99.90
9437;DHT22;4757;59.334;18.034;2023-01-08T03:25:18;2.70;99.90
9437;DHT22;4757;59.334;18.034;2023-01-08T03:27:49;2.70;99.90
9437;DHT22;4757;59.334;18.034;2023-01-08T03:30:19;2.70;99.90
9437;DHT22;4757;59.334;18.034;2023-01-08T03:32:47;2.70;99.90
9437;DHT22;4757;59.334;18.034;2023-01-08T03:35:19;2.70;99.90
9437;DHT22;4757;59.334;18.034;2023-01-08T03:37:56;2.80;99.90
9437;DHT22;4757;59.334;18.034;2023-01-08T03:40:33;2.80;99.90
9437;DHT22;4757;59.334;18.034;2023-01-08T03:43:00;2.80;99.90
9437;DHT22;4757;59.334;18.034;2023-01-08T03:45:29;2.80;99.90
9437;DHT22;4757;59.334;18.034;2023-01-08T03:47:57;2.80;99.90
9437;DHT22;4757;59.334;18.034;2023-01-08T03:50:27;2.90;99.90
9437;DHT22;4757;59.334;18.034;2023-01-08T03:52:55;2.80;99.90
9437;DHT22;4757;59.334;18.034;2023-01-08T03:55:24;2.90;99.90
9437;DHT22;4757;59.334;18.034;2023-01-08T03:57:51;2.90;99.90
9437;DHT22;4757;59.334;18.034;2023-01-08T04:00:18;2.90;99.90
9437;DHT22;4757;59.334;18.034;2023-01-08T04:02:45;2.90;99.90
9437;DHT22;4757;59.334;18.034;2023-01-08T04:05:12;2.90;99.90
9437;DHT22;4757;59.334;18.034;2023-01-08T04:07:39;2.90;99.90
9437;DHT22;4757;59.334;18.034;2023-01-08T04:10:06;3.00;99.90
9437;DHT22;4757;59.334;18.034;2023-01-08T04:12:33;2.90;99.90
9437;DHT22;4757;59.334;18.034;2023-01-08T04:15:00;2.90;99.90
9437;DHT22;4757;59.334;18.034;2023-01-08T04:17:27;2.90;99.90
9437;DHT22;4757;59.334;18.034;2023-01-08T04:19:54;2.90;99.90
9437;DHT22;4757;59.334;18.034;2023-01-08T04:22:21;3.00;99.90
9437;DHT22;4757;59.334;18.034;2023-01-08T04:24:48;3.00;99.90
9437;DHT22;4757;59.334;18.034;2023-01-08T04:27:15;3.10;99.90
9437;DHT22;4757;59.334;18.034;2023-01-08T04:29:42;3.10;99.90
9437;DHT22;4757;59.334;18.034;2023-01-08T04:32:09;3.10;99.90
9437;DHT22;4757;59.334;18.034;2023-01-08T04:34:36;3.10;99.90
9437;DHT22;4757;59.334;18.034;2023-01-08T04:37:04;3.10;99.90
9437;DHT22;4757;59.334;18.034;2023-01-08T04:39:31;3.10;99.90
9437;DHT22;4757;59.334;18.034;2023-01-08T04:41:58;3.10;99.90
9437;DHT22;4757;59.334;18.034;2023-01-08T04:44:26;3.20;99.90
9437;DHT22;4757;59.334;18.034;2023-01-08T04:46:53;3.20;99.90
9437;DHT22;4757;59.334;18.034;2023-01-08T04:49:20;3.20;99.90
9437;DHT22;4757;59.334;18.034;2023-01-08T04:51:48;3.20;99.90
9437;DHT22;4757;59.334;18.034;2023-01-08T04:54:15;3.20;99.90
9437;DHT22;4757;59.334;18.034;2023-01-08T04:56:42;3.20;99.90
9437;DHT22;4757;59.334;18.034;2023-01-08T04:59:09;3.20;99.90
9437;DHT22;4757;59.334;18.034;2023-01-08T05:01:36;3.20;99.90
9437;DHT22;4757;59.334;18.034;2023-01-08T05:04:04;3.20;99.90
9437;DHT22;4757;59.334;18.034;2023-01-08T05:06:31;3.30;99.90
9437;DHT22;4757;59.334;18.034;2023-01-08T05:08:59;3.30;99.90
9437;DHT22;4757;59.334;18.034;2023-01-08T05:11:26;3.20;99.90
9437;DHT22;4757;59.334;18.034;2023-01-08T05:13:53;3.30;99.90
9437;DHT22;4757;59.334;18.034;2023-01-08T05:16:20;3.30;99.90
9437;DHT22;4757;59.334;18.034;2023-01-08T05:18:47;3.30;99.90
9437;DHT22;4757;59.334;18.034;2023-01-08T05:21:14;3.30;99.90
9437;DHT22;4757;59.334;18.034;2023-01-08T05:23:45;3.30;99.90
9437;DHT22;4757;59.334;18.034;2023-01-08T05:26:13;3.30;99.90
9437;DHT22;4757;59.334;18.034;2023-01-08T05:28:41;3.30;99.90
9437;DHT22;4757;59.334;18.034;2023-01-08T05:31:08;3.20;99.90
9437;DHT22;4757;59.334;18.034;2023-01-08T05:33:35;3.30;99.90
9437;DHT22;4757;59.334;18.034;2023-01-08T05:36:09;3.30;99.90
9437;DHT22;4757;59.334;18.034;2023-01-08T05:38:37;3.30;99.90
9437;DHT22;4757;59.334;18.034;2023-01-08T05:41:05;3.30;99.90
9437;DHT22;4757;59.334;18.034;2023-01-08T05:43:33;3.30;99.90
9437;DHT22;4757;59.334;18.034;2023-01-08T05:46:01;3.30;99.90
9437;DHT22;4757;59.334;18.034;2023-01-08T05:48:30;3.30;99.90
9437;DHT22;4757;59.334;18.034;2023-01-08T05:50:57;3.30;99.90
9437;DHT22;4757;59.334;18.034;2023-01-08T05:53:24;3.30;99.90
9437;DHT22;4757;59.334;18.034;2023-01-08T05:55:56;3.30;99.90
9437;DHT22;4757;59.334;18.034;2023-01-08T05:58:23;3.30;99.90
9437;DHT22;4757;59.334;18.034;2023-01-08T06:00:51;3.30;99.90
9437;DHT22;4757;59.334;18.034;2023-01-08T06:03:22;3.40;99.90
9437;DHT22;4757;59.334;18.034;2023-01-08T06:05:49;3.30;99.90
9437;DHT22;4757;59.334;18.034;2023-01-08T06:08:16;3.40;99.90
9437;DHT22;4757;59.334;18.034;2023-01-08T06:10:43;3.40;99.90
9437;DHT22;4757;59.334;18.034;2023-01-08T06:13:10;3.40;99.90
9437;DHT22;4757;59.334;18.034;2023-01-08T06:15:37;3.40;99.90
9437;DHT22;4757;59.334;18.034;2023-01-08T06:18:06;3.40;99.90
9437;DHT22;4757;59.334;18.034;2023-01-08T06:20:33;3.40;99.90
9437;DHT22;4757;59.334;18.034;2023-01-08T06:23:00;3.40;99.90
9437;DHT22;4757;59.334;18.034;2023-01-08T06:25:27;3.40;99.90
9437;DHT22;4757;59.334;18.034;2023-01-08T06:27:55;3.40;99.90
9437;DHT22;4757;59.334;18.034;2023-01-08T06:30:22;3.40;99.90
9437;DHT22;4757;59.334;18.034;2023-01-08T06:32:49;3.40;99.90
9437;DHT22;4757;59.334;18.034;2023-01-08T06:35:20;3.40;99.90
9437;DHT22;4757;59.334;18.034;2023-01-08T06:37:47;3.40;99.90
9437;DHT22;4757;59.334;18.034;2023-01-08T06:40:14;3.40;99.90
9437;DHT22;4757;59.334;18.034;2023-01-08T06:42:42;3.40;99.90
9437;DHT22;4757;59.334;18.034;2023-01-08T06:45:10;3.40;99.90
9437;DHT22;4757;59.334;18.034;2023-01-08T06:47:37;3.40;99.90
9437;DHT22;4757;59.334;18.034;2023-01-08T06:50:05;3.40;99.90
9437;DHT22;4757;59.334;18.034;2023-01-08T06:52:32;3.40;99.90
9437;DHT22;4757;59.334;18.034;2023-01-08T06:54:59;3.50;99.90
9437;DHT22;4757;59.334;18.034;2023-01-08T06:57:26;3.50;99.90
9437;DHT22;4757;59.334;18.034;2023-01-08T06:59:53;3.50;99.90
9437;DHT22;4757;59.334;18.034;2023-01-08T07:02:20;3.50;99.90
9437;DHT22;4757;59.334;18.034;2023-01-08T07:04:51;3.50;99.90
9437;DHT22;4757;59.334;18.034;2023-01-08T07:07:18;3.50;99.90
9437;DHT22;4757;59.334;18.034;2023-01-08T07:09:45;3.50;99.90
9437;DHT22;4757;59.334;18.034;2023-01-08T07:12:12;3.50;99.90
9437;DHT22;4757;59.334;18.034;2023-01-08T07:14:40;3.60;99.90
9437;DHT22;4757;59.334;18.034;2023-01-08T07:17:07;3.60;99.90
9437;DHT22;4757;59.334;18.034;2023-01-08T07:19:34;3.60;99.90
9437;DHT22;4757;59.334;18.034;2023-01-08T07:22:01;3.70;99.90
9437;DHT22;4757;59.334;18.034;2023-01-08T07:24:28;3.70;99.90
9437;DHT22;4757;59.334;18.034;2023-01-08T07:26:55;3.60;99.90
9437;DHT22;4757;59.334;18.034;2023-01-08T07:29:22;3.60;99.90
9437;DHT22;4757;59.334;18.034;2023-01-08T07:31:49;3.60;99.90
9437;DHT22;4757;59.334;18.034;2023-01-08T07:34:16;3.60;99.90
9437;DHT22;4757;59.334;18.034;2023-01-08T07:36:44;3.70;99.90
9437;DHT22;4757;59.334;18.034;2023-01-08T07:39:11;3.70;99.90
9437;DHT22;4757;59.334;18.034;2023-01-08T07:41:38;3.70;99.90
9437;DHT22;4757;59.334;18.034;2023-01-08T07:44:05;3.70;99.90
9437;DHT22;4757;59.334;18.034;2023-01-08T07:46:32;3.80;99.90
9437;DHT22;4757;59.334;18.034;2023-01-08T07:48:59;3.80;99.90
9437;DHT22;4757;59.334;18.034;2023-01-08T07:51:26;3.80;99.90
9437;DHT22;4757;59.334;18.034;2023-01-08T07:53:53;3.80;99.90
9437;DHT22;4757;59.334;18.034;2023-01-08T07:56:22;3.80;99.90
9437;DHT22;4757;59.334;18.034;2023-01-08T07:58:50;3.80;99.90
9437;DHT22;4757;59.334;18.034;2023-01-08T08:01:18;3.80;99.90
9437;DHT22;4757;59.334;18.034;2023-01-08T08:03:45;3.80;99.90
9437;DHT22;4757;59.334;18.034;2023-01-08T08:06:12;3.90;99.90
9437;DHT22;4757;59.334;18.034;2023-01-08T08:08:39;3.90;99.90
9437;DHT22;4757;59.334;18.034;2023-01-08T08:11:08;3.90;99.90
9437;DHT22;4757;59.334;18.034;2023-01-08T08:13:35;3.80;99.90
9437;DHT22;4757;59.334;18.034;2023-01-08T08:16:03;3.90;99.90
9437;DHT22;4757;59.334;18.034;2023-01-08T08:18:30;3.90;99.90
9437;DHT22;4757;59.334;18.034;2023-01-08T08:20:58;3.90;99.90
9437;DHT22;4757;59.334;18.034;2023-01-08T08:23:25;3.90;99.90
9437;DHT22;4757;59.334;18.034;2023-01-08T08:25:52;4.00;99.90
9437;DHT22;4757;59.334;18.034;2023-01-08T08:28:19;4.00;99.90
9437;DHT22;4757;59.334;18.034;2023-01-08T08:30:47;4.00;99.90
9437;DHT22;4757;59.334;18.034;2023-01-08T08:33:14;4.00;99.90
9437;DHT22;4757;59.334;18.034;2023-01-08T08:35:47;4.00;99.90
9437;DHT22;4757;59.334;18.034;2023-01-08T08:38:16;4.10;99.90
9437;DHT22;4757;59.334;18.034;2023-01-08T08:40:43;4.10;99.90
9437;DHT22;4757;59.334;18.034;2023-01-08T08:43:10;4.10;99.90
9437;DHT22;4757;59.334;18.034;2023-01-08T08:45:38;4.20;99.90
9437;DHT22;4757;59.334;18.034;2023-01-08T08:48:06;4.10;99.90
9437;DHT22;4757;59.334;18.034;2023-01-08T08:50:34;4.10;99.90
9437;DHT22;4757;59.334;18.034;2023-01-08T08:53:03;4.20;99.90
9437;DHT22;4757;59.334;18.034;2023-01-08T08:55:32;4.20;99.90
9437;DHT22;4757;59.334;18.034;2023-01-08T08:58:11;4.20;99.90
9437;DHT22;4757;59.334;18.034;2023-01-08T09:00:40;4.20;99.90
9437;DHT22;4757;59.334;18.034;2023-01-08T09:03:14;4.20;99.90
9437;DHT22;4757;59.334;18.034;2023-01-08T09:05:42;4.30;99.90
9437;DHT22;4757;59.334;18.034;2023-01-08T09:08:10;4.30;99.90
9437;DHT22;4757;59.334;18.034;2023-01-08T09:10:39;4.30;99.90
9437;DHT22;4757;59.334;18.034;2023-01-08T09:13:08;4.30;99.90
9437;DHT22;4757;59.334;18.034;2023-01-08T09:15:36;4.30;99.90
9437;DHT22;4757;59.334;18.034;2023-01-08T09:18:04;4.30;99.90
9437;DHT22;4757;59.334;18.034;2023-01-08T09:20:31;4.30;99.90
9437;DHT22;4757;59.334;18.034;2023-01-08T09:22:59;4.40;99.90
9437;DHT22;4757;59.334;18.034;2023-01-08T09:25:27;4.40;99.90
9437;DHT22;4757;59.334;18.034;2023-01-08T09:28:05;4.40;99.90
9437;DHT22;4757;59.334;18.034;2023-01-08T09:30:33;4.30;99.90
9437;DHT22;4757;59.334;18.034;2023-01-08T09:33:08;4.40;99.90
9437;DHT22;4757;59.334;18.034;2023-01-08T09:35:36;4.40;99.90
9437;DHT22;4757;59.334;18.034;2023-01-08T09:38:03;4.40;99.90
9437;DHT22;4757;59.334;18.034;2023-01-08T09:41:16;4.40;99.90
9437;DHT22;4757;59.334;18.034;2023-01-08T09:43:25;4.40;99.90
9437;DHT22;4757;59.334;18.034;2023-01-08T09:46:00;4.50;99.90
9437;DHT22;4757;59.334;18.034;2023-01-08T09:48:32;4.50;99.90
9437;DHT22;4757;59.334;18.034;2023-01-08T09:51:00;4.50;99.90
9437;DHT22;4757;59.334;18.034;2023-01-08T09:53:28;4.50;99.90
9437;DHT22;4757;59.334;18.034;2023-01-08T09:55:59;4.50;99.90
9437;DHT22;4757;59.334;18.034;2023-01-08T09:58:42;4.60;99.90
9437;DHT22;4757;59.334;18.034;2023-01-08T10:01:21;4.50;99.90
9437;DHT22;4757;59.334;18.034;2023-01-08T10:06:55;4.50;99.90
9437;DHT22;4757;59.334;18.034;2023-01-08T10:09:30;4.50;99.90
9437;DHT22;4757;59.334;18.034;2023-01-08T10:12:03;4.50;99.90
9437;DHT22;4757;59.334;18.034;2023-01-08T10:14:34;4.50;99.90
9437;DHT22;4757;59.334;18.034;2023-01-08T10:17:41;4.50;99.90
9437;DHT22;4757;59.334;18.034;2023-01-08T10:20:22;4.50;99.90
9437;DHT22;4757;59.334;18.034;2023-01-08T10:22:51;4.50;99.90
9437;DHT22;4757;59.334;18.034;2023-01-08T10:25:22;4.50;99.90
9437;DHT22;4757;59.334;18.034;2023-01-08T10:27:57;4.60;99.90
9437;DHT22;4757;59.334;18.034;2023-01-08T10:30:37;4.60;99.90
9437;DHT22;4757;59.334;18.034;2023-01-08T10:33:10;4.50;99.90
9437;DHT22;4757;59.334;18.034;2023-01-08T10:35:40;4.50;99.90
9437;DHT22;4757;59.334;18.034;2023-01-08T10:38:27;4.50;99.90
9437;DHT22;4757;59.334;18.034;2023-01-08T10:41:09;4.50;99.90
9437;DHT22;4757;59.334;18.034;2023-01-08T10:44:00;4.60;99.90
9437;DHT22;4757;59.334;18.034;2023-01-08T10:46:47;4.50;99.90
9437;DHT22;4757;59.334;18.034;2023-01-08T10:49:39;4.50;99.90
9437;DHT22;4757;59.334;18.034;2023-01-08T10:52:26;4.60;99.90
9437;DHT22;4757;59.334;18.034;2023-01-08T10:54:54;4.60;99.90
9437;DHT22;4757;59.334;18.034;2023-01-08T10:57:27;4.60;99.90
9437;DHT22;4757;59.334;18.034;2023-01-08T10:59:55;4.60;99.90
9437;DHT22;4757;59.334;18.034;2023-01-08T11:02:34;4.60;99.90
9437;DHT22;4757;59.334;18.034;2023-01-08T11:05:07;4.60;99.90
9437;DHT22;4757;59.334;18.034;2023-01-08T11:07:50;4.60;99.90
9437;DHT22;4757;59.334;18.034;2023-01-08T11:10:24;4.60;99.90
9437;DHT22;4757;59.334;18.034;2023-01-08T11:13:00;4.60;99.90
9437;DHT22;4757;59.334;18.034;2023-01-08T11:15:40;4.60;99.90
9437;DHT22;4757;59.334;18.034;2023-01-08T11:18:20;4.60;99.90
9437;DHT22;4757;59.334;18.034;2023-01-08T11:20:48;4.60;99.90
9437;DHT22;4757;59.334;18.034;2023-01-08T11:23:24;4.60;99.90
9437;DHT22;4757;59.334;18.034;2023-01-08T11:26:17;4.60;99.90
9437;DHT22;4757;59.334;18.034;2023-01-08T11:29:10;4.50;99.90
9437;DHT22;4757;59.334;18.034;2023-01-08T11:32:20;4.60;99.90
9437;DHT22;4757;59.334;18.034;2023-01-08T11:35:01;4.60;99.90
9437;DHT22;4757;59.334;18.034;2023-01-08T11:37:35;4.60;99.90
9437;DHT22;4757;59.334;18.034;2023-01-08T11:40:17;4.60;99.90
9437;DHT22;4757;59.334;18.034;2023-01-08T11:48:45;4.60;99.90
9437;DHT22;4757;59.334;18.034;2023-01-08T11:57:13;4.60;99.90
9437;DHT22;4757;59.334;18.034;2023-01-08T12:00:07;4.60;99.90
9437;DHT22;4757;59.334;18.034;2023-01-08T12:03:02;4.60;99.90
9437;DHT22;4757;59.334;18.034;2023-01-08T12:14:12;4.60;99.90
9437;DHT22;4757;59.334;18.034;2023-01-08T12:30:01;4.70;99.90
9437;DHT22;4757;59.334;18.034;2023-01-08T12:32:26;4.70;99.90
9437;DHT22;4757;59.334;18.034;2023-01-08T12:35:02;4.70;99.90
9437;DHT22;4757;59.334;18.034;2023-01-08T12:43:31;4.60;99.90
9437;DHT22;4757;59.334;18.034;2023-01-08T12:46:01;4.60;99.90
9437;DHT22;4757;59.334;18.034;2023-01-08T12:48:31;4.60;99.90
9437;DHT22;4757;59.334;18.034;2023-01-08T12:51:07;4.70;99.90
9437;DHT22;4757;59.334;18.034;2023-01-08T12:53:56;4.60;99.90
9437;DHT22;4757;59.334;18.034;2023-01-08T12:59:21;4.70;99.90
9437;DHT22;4757;59.334;18.034;2023-01-08T13:02:13;4.60;99.90
9437;DHT22;4757;59.334;18.034;2023-01-08T13:04:44;4.60;99.90
9437;DHT22;4757;59.334;18.034;2023-01-08T13:07:20;4.70;99.90
9437;DHT22;4757;59.334;18.034;2023-01-08T13:10:02;4.70;99.90
9437;DHT22;4757;59.334;18.034;2023-01-08T13:12:39;4.60;99.90
9437;DHT22;4757;59.334;18.034;2023-01-08T13:15:07;4.60;99.90
9437;DHT22;4757;59.334;18.034;2023-01-08T13:17:36;4.60;99.90
9437;DHT22;4757;59.334;18.034;2023-01-08T13:20:05;4.60;99.90
9437;DHT22;4757;59.334;18.034;2023-01-08T13:22:34;4.70;99.90
9437;DHT22;4757;59.334;18.034;2023-01-08T13:27:44;4.60;99.90
9437;DHT22;4757;59.334;18.034;2023-01-08T13:30:35;4.60;99.90
9437;DHT22;4757;59.334;18.034;2023-01-08T13:36:23;4.60;99.90
9437;DHT22;4757;59.334;18.034;2023-01-08T13:41:34;4.60;99.90
9437;DHT22;4757;59.334;18.034;2023-01-08T13:44:05;4.60;99.90
9437;DHT22;4757;59.334;18.034;2023-01-08T13:46:39;4.60;99.90
9437;DHT22;4757;59.334;18.034;2023-01-08T13:49:17;4.60;99.90
9437;DHT22;4757;59.334;18.034;2023-01-08T13:51:49;4.60;99.90
9437;DHT22;4757;59.334;18.034;2023-01-08T13:54:24;4.50;99.90
9437;DHT22;4757;59.334;18.034;2023-01-08T13:56:54;4.60;99.90
9437;DHT22;4757;59.334;18.034;2023-01-08T14:02:01;4.60;99.90
9437;DHT22;4757;59.334;18.034;2023-01-08T14:04:29;4.60;99.90
9437;DHT22;4757;59.334;18.034;2023-01-08T14:07:26;4.60;99.90
9437;DHT22;4757;59.334;18.034;2023-01-08T14:10:04;4.60;99.90
9437;DHT22;4757;59.334;18.034;2023-01-08T14:12:34;4.60;99.90
9437;DHT22;4757;59.334;18.034;2023-01-08T14:15:02;4.60;99.90
9437;DHT22;4757;59.334;18.034;2023-01-08T14:17:36;4.60;99.90
9437;DHT22;4757;59.334;18.034;2023-01-08T14:20:08;4.50;99.90
9437;DHT22;4757;59.334;18.034;2023-01-08T14:22:36;4.60;99.90
9437;DHT22;4757;59.334;18.034;2023-01-08T14:25:05;4.50;99.90
9437;DHT22;4757;59.334;18.034;2023-01-08T14:27:34;4.50;99.90
9437;DHT22;4757;59.334;18.034;2023-01-08T14:30:14;4.50;99.90
9437;DHT22;4757;59.334;18.034;2023-01-08T14:32:43;4.40;99.90
9437;DHT22;4757;59.334;18.034;2023-01-08T14:35:16;4.50;99.90
9437;DHT22;4757;59.334;18.034;2023-01-08T14:37:45;4.50;99.90
9437;DHT22;4757;59.334;18.034;2023-01-08T14:40:23;4.40;99.90
9437;DHT22;4757;59.334;18.034;2023-01-08T14:42:55;4.40;99.90
9437;DHT22;4757;59.334;18.034;2023-01-08T14:45:28;4.50;99.90
9437;DHT22;4757;59.334;18.034;2023-01-08T14:47:59;4.40;99.90
9437;DHT22;4757;59.334;18.034;2023-01-08T14:50:37;4.50;99.90
9437;DHT22;4757;59.334;18.034;2023-01-08T14:55:48;4.40;99.90
9437;DHT22;4757;59.334;18.034;2023-01-08T14:58:21;4.40;99.90
9437;DHT22;4757;59.334;18.034;2023-01-08T15:00:55;4.40;99.90
9437;DHT22;4757;59.334;18.034;2023-01-08T15:03:44;4.50;99.90
9437;DHT22;4757;59.334;18.034;2023-01-08T15:06:31;4.50;99.90
9437;DHT22;4757;59.334;18.034;2023-01-08T15:08:59;4.40;99.90
9437;DHT22;4757;59.334;18.034;2023-01-08T15:11:30;4.40;99.90
9437;DHT22;4757;59.334;18.034;2023-01-08T15:14:14;4.40;99.90
9437;DHT22;4757;59.334;18.034;2023-01-08T15:16:42;4.40;99.90
9437;DHT22;4757;59.334;18.034;2023-01-08T15:19:11;4.40;99.90
9437;DHT22;4757;59.334;18.034;2023-01-08T15:21:48;4.40;99.90
9437;DHT22;4757;59.334;18.034;2023-01-08T15:24:31;4.40;99.90
9437;DHT22;4757;59.334;18.034;2023-01-08T15:27:00;4.40;99.90
9437;DHT22;4757;59.334;18.034;2023-01-08T15:29:47;4.40;99.90
9437;DHT22;4757;59.334;18.034;2023-01-08T15:34:44;4.40;99.90
9437;DHT22;4757;59.334;18.034;2023-01-08T15:37:13;4.30;99.90
9437;DHT22;4757;59.334;18.034;2023-01-08T15:39:45;4.40;99.90
9437;DHT22;4757;59.334;18.034;2023-01-08T15:42:47;4.30;99.90
9437;DHT22;4757;59.334;18.034;2023-01-08T15:48:31;4.40;99.90
9437;DHT22;4757;59.334;18.034;2023-01-08T15:51:21;4.30;99.90
9437;DHT22;4757;59.334;18.034;2023-01-08T15:58:07;4.30;99.90
9437;DHT22;4757;59.334;18.034;2023-01-08T16:00:40;4.30;99.90
9437;DHT22;4757;59.334;18.034;2023-01-08T16:03:17;4.30;99.90
9437;DHT22;4757;59.334;18.034;2023-01-08T16:06:11;4.30;99.90
9437;DHT22;4757;59.334;18.034;2023-01-08T16:08:53;4.30;99.90
9437;DHT22;4757;59.334;18.034;2023-01-08T16:11:42;4.30;99.90
9437;DHT22;4757;59.334;18.034;2023-01-08T16:18:19;4.30;99.90
9437;DHT22;4757;59.334;18.034;2023-01-08T16:21:09;4.20;99.90
9437;DHT22;4757;59.334;18.034;2023-01-08T16:24:11;4.20;99.90
9437;DHT22;4757;59.334;18.034;2023-01-08T16:27:04;4.20;99.90
9437;DHT22;4757;59.334;18.034;2023-01-08T16:33:30;4.20;99.90
9437;DHT22;4757;59.334;18.034;2023-01-08T16:40:23;4.20;99.90
9437;DHT22;4757;59.334;18.034;2023-01-08T16:43:55;4.20;99.90
9437;DHT22;4757;59.334;18.034;2023-01-08T16:50:50;4.10;99.90
9437;DHT22;4757;59.334;18.034;2023-01-08T16:54:32;4.10;99.90
9437;DHT22;4757;59.334;18.034;2023-01-08T17:00:57;4.00;99.90
9437;DHT22;4757;59.334;18.034;2023-01-08T17:03:39;4.00;99.90
9437;DHT22;4757;59.334;18.034;2023-01-08T17:06:35;4.00;99.90
9437;DHT22;4757;59.334;18.034;2023-01-08T17:09:23;4.00;99.90
9437;DHT22;4757;59.334;18.034;2023-01-08T17:11:51;4.00;99.90
9437;DHT22;4757;59.334;18.034;2023-01-08T17:14:18;4.00;99.90
9437;DHT22;4757;59.334;18.034;2023-01-08T17:16:45;3.90;99.90
9437;DHT22;4757;59.334;18.034;2023-01-08T17:19:13;3.90;99.90
9437;DHT22;4757;59.334;18.034;2023-01-08T17:21:40;3.90;99.90
9437;DHT22;4757;59.334;18.034;2023-01-08T17:24:08;4.00;99.90
9437;DHT22;4757;59.334;18.034;2023-01-08T17:26:35;4.00;99.90
9437;DHT22;4757;59.334;18.034;2023-01-08T17:29:07;4.00;99.90
9437;DHT22;4757;59.334;18.034;2023-01-08T17:31:34;3.90;99.90
9437;DHT22;4757;59.334;18.034;2023-01-08T17:34:06;4.00;99.90
9437;DHT22;4757;59.334;18.034;2023-01-08T17:36:37;3.90;99.90
9437;DHT22;4757;59.334;18.034;2023-01-08T17:39:04;3.90;99.90
9437;DHT22;4757;59.334;18.034;2023-01-08T17:41:31;3.90;99.90
9437;DHT22;4757;59.334;18.034;2023-01-08T17:44:19;3.90;99.90
9437;DHT22;4757;59.334;18.034;2023-01-08T17:46:46;4.00;99.90
9437;DHT22;4757;59.334;18.034;2023-01-08T17:49:14;4.00;99.90
9437;DHT22;4757;59.334;18.034;2023-01-08T17:51:42;4.00;99.90
9437;DHT22;4757;59.334;18.034;2023-01-08T17:54:10;4.00;99.90
9437;DHT22;4757;59.334;18.034;2023-01-08T17:56:38;4.00;99.90
9437;DHT22;4757;59.334;18.034;2023-01-08T17:59:05;4.00;99.90
9437;DHT22;4757;59.334;18.034;2023-01-08T18:01:33;3.90;99.90
9437;DHT22;4757;59.334;18.034;2023-01-08T18:04:01;3.90;99.90
9437;DHT22;4757;59.334;18.034;2023-01-08T18:06:28;3.90;99.90
9437;DHT22;4757;59.334;18.034;2023-01-08T18:08:55;3.90;99.90
9437;DHT22;4757;59.334;18.034;2023-01-08T18:11:22;3.90;99.90
9437;DHT22;4757;59.334;18.034;2023-01-08T18:13:59;3.90;99.90
9437;DHT22;4757;59.334;18.034;2023-01-08T18:16:27;3.90;99.90
9437;DHT22;4757;59.334;18.034;2023-01-08T18:18:56;3.90;99.90
9437;DHT22;4757;59.334;18.034;2023-01-08T18:21:24;3.90;99.90